sensor_id;sensor_type;location;lat;lon;timestamp;pressure;altitude;pressure_sealevel;temperature;humidity
48862;BME280;34681;49.188;-0.374;2023-07-22T00:01:48;101434.22;;;19.29;55.78
48862;BME280;34681;49.188;-0.374;2023-07-22T00:04:13;101440.13;;;19.26;55.97
48862;BME280;34681;49.188;-0.374;2023-07-22T00:06:39;101440.13;;;19.26;55.88
48862;BME280;34681;49.188;-0.374;2023-07-22T00:09:04;101432.75;;;19.18;56.38
48862;BME280;34681;49.188;-0.374;2023-07-22T00:11:30;101423.75;;;19.16;56.35
48862;BME280;34681;49.188;-0.374;2023-07-22T00:13:55;101432.06;;;19.16;56.30
48862;BME280;34681;49.188;-0.374;2023-07-22T00:16:21;101435.03;;;19.15;56.59
48862;BME280;34681;49.188;-0.374;2023-07-22T00:18:46;101435.41;;;19.12;56.86
48862;BME280;34681;49.188;-0.374;2023-07-22T00:21:13;101432.66;;;19.12;56.79
48862;BME280;34681;49.188;-0.374;2023-07-22T00:23:38;101434.38;;;19.13;56.93
48862;BME280;34681;49.188;-0.374;2023-07-22T00:26:04;101422.56;;;19.11;56.80
48862;BME280;34681;49.188;-0.374;2023-07-22T00:28:29;101426.59;;;19.08;57.06
48862;BME280;34681;49.188;-0.374;2023-07-22T00:30:54;101427.44;;;19.08;57.14
48862;BME280;34681;49.188;-0.374;2023-07-22T00:33:20;101416.34;;;19.08;56.88
48862;BME280;34681;49.188;-0.374;2023-07-22T00:35:49;101418.47;;;19.06;56.96
48862;BME280;34681;49.188;-0.374;2023-07-22T00:38:17;101423.69;;;19.01;57.17
48862;BME280;34681;49.188;-0.374;2023-07-22T00:40:43;101416.06;;;19.03;57.21
48862;BME280;34681;49.188;-0.374;2023-07-22T00:43:09;101411.06;;;18.99;57.42
48862;BME280;34681;49.188;-0.374;2023-07-22T00:45:34;101404.97;;;19.03;57.25
48862;BME280;34681;49.188;-0.374;2023-07-22T00:47:59;101406.78;;;18.96;57.17
48862;BME280;34681;49.188;-0.374;2023-07-22T00:50:25;101408.69;;;18.96;57.50
48862;BME280;34681;49.188;-0.374;2023-07-22T00:52:52;101406.44;;;18.91;57.56
48862;BME280;34681;49.188;-0.374;2023-07-22T00:55:17;101411.81;;;18.93;57.48
48862;BME280;34681;49.188;-0.374;2023-07-22T00:57:43;101412.66;;;18.93;57.50
48862;BME280;34681;49.188;-0.374;2023-07-22T01:00:09;101406.25;;;18.93;57.58
48862;BME280;34681;49.188;-0.374;2023-07-22T01:02:38;101406.66;;;18.90;57.32
48862;BME280;34681;49.188;-0.374;2023-07-22T01:05:04;101399.38;;;18.89;57.43
48862;BME280;34681;49.188;-0.374;2023-07-22T01:07:30;101397.66;;;18.88;57.40
48862;BME280;34681;49.188;-0.374;2023-07-22T01:09:56;101394.69;;;18.89;57.42
48862;BME280;34681;49.188;-0.374;2023-07-22T01:12:23;101393.16;;;18.87;57.55
48862;BME280;34681;49.188;-0.374;2023-07-22T01:14:48;101385.00;;;18.85;57.24
48862;BME280;34681;49.188;-0.374;2023-07-22T01:17:15;101393.03;;;18.80;57.39
48862;BME280;34681;49.188;-0.374;2023-07-22T01:19:40;101387.84;;;18.77;57.72
48862;BME280;34681;49.188;-0.374;2023-07-22T01:22:06;101382.69;;;18.74;57.50
48862;BME280;34681;49.188;-0.374;2023-07-22T01:24:39;101380.09;;;18.72;57.45
48862;BME280;34681;49.188;-0.374;2023-07-22T01:27:06;101375.94;;;18.68;57.82
48862;BME280;34681;49.188;-0.374;2023-07-22T01:29:34;101377.50;;;18.71;58.02
48862;BME280;34681;49.188;-0.374;2023-07-22T01:31:59;101381.31;;;18.70;57.88
48862;BME280;34681;49.188;-0.374;2023-07-22T01:34:24;101375.94;;;18.68;57.83
48862;BME280;34681;49.188;-0.374;2023-07-22T01:36:50;101370.41;;;18.68;57.63
48862;BME280;34681;49.188;-0.374;2023-07-22T01:39:16;101376.34;;;18.65;57.90
48862;BME280;34681;49.188;-0.374;2023-07-22T01:41:42;101368.72;;;18.59;57.63
48862;BME280;34681;49.188;-0.374;2023-07-22T01:44:08;101366.66;;;18.53;57.99
48862;BME280;34681;49.188;-0.374;2023-07-22T01:46:34;101366.31;;;18.56;57.94
48862;BME280;34681;49.188;-0.374;2023-07-22T01:49:01;101368.91;;;18.58;57.87
48862;BME280;34681;49.188;-0.374;2023-07-22T01:51:27;101370.50;;;18.52;57.93
48862;BME280;34681;49.188;-0.374;2023-07-22T01:53:52;101370.50;;;18.52;57.88
48862;BME280;34681;49.188;-0.374;2023-07-22T01:56:17;101370.50;;;18.52;58.26
48862;BME280;34681;49.188;-0.374;2023-07-22T01:58:45;101371.72;;;18.49;58.17
48862;BME280;34681;49.188;-0.374;2023-07-22T02:01:11;101375.56;;;18.48;58.11
48862;BME280;34681;49.188;-0.374;2023-07-22T02:03:39;101362.94;;;18.46;57.96
48862;BME280;34681;49.188;-0.374;2023-07-22T02:06:05;101366.72;;;18.45;58.25
48862;BME280;34681;49.188;-0.374;2023-07-22T02:08:31;101361.38;;;18.43;58.17
48862;BME280;34681;49.188;-0.374;2023-07-22T02:11:04;101358.78;;;18.42;58.04
48862;BME280;34681;49.188;-0.374;2023-07-22T02:13:33;101358.78;;;18.42;58.20
48862;BME280;34681;49.188;-0.374;2023-07-22T02:15:59;101356.41;;;18.39;58.19
48862;BME280;34681;49.188;-0.374;2023-07-22T02:18:25;101349.28;;;18.36;58.14
48862;BME280;34681;49.188;-0.374;2023-07-22T02:20:50;101349.13;;;18.38;58.14
48862;BME280;34681;49.188;-0.374;2023-07-22T02:23:16;101350.72;;;18.32;58.41
48862;BME280;34681;49.188;-0.374;2023-07-22T02:25:42;101351.09;;;18.29;58.48
48862;BME280;34681;49.188;-0.374;2023-07-22T02:28:07;101351.16;;;18.21;58.64
48862;BME280;34681;49.188;-0.374;2023-07-22T02:30:36;101345.47;;;18.14;58.88
48862;BME280;34681;49.188;-0.374;2023-07-22T02:33:02;101351.50;;;18.18;58.89
48862;BME280;34681;49.188;-0.374;2023-07-22T02:35:28;101351.31;;;18.19;58.82
48862;BME280;34681;49.188;-0.374;2023-07-22T02:37:53;101352.16;;;18.20;58.78
48862;BME280;34681;49.188;-0.374;2023-07-22T02:40:19;101353.06;;;18.20;58.95
48862;BME280;34681;49.188;-0.374;2023-07-22T02:42:44;101347.53;;;18.20;58.75
48862;BME280;34681;49.188;-0.374;2023-07-22T02:45:10;101349.59;;;18.18;58.68
48862;BME280;34681;49.188;-0.374;2023-07-22T02:47:35;101349.78;;;18.17;58.76
48862;BME280;34681;49.188;-0.374;2023-07-22T02:50:01;101352.53;;;18.17;58.84
48862;BME280;34681;49.188;-0.374;2023-07-22T02:52:27;101348.56;;;18.11;58.95
48862;BME280;34681;49.188;-0.374;2023-07-22T02:55:07;101346.13;;;18.16;58.98
48862;BME280;34681;49.188;-0.374;2023-07-22T02:57:33;101345.47;;;18.14;58.98
48862;BME280;34681;49.188;-0.374;2023-07-22T02:59:59;101346.00;;;18.10;58.88
48862;BME280;34681;49.188;-0.374;2023-07-22T03:02:24;101352.41;;;18.10;59.07
48862;BME280;34681;49.188;-0.374;2023-07-22T03:04:50;101347.56;;;18.12;58.99
48862;BME280;34681;49.188;-0.374;2023-07-22T03:07:15;101351.19;;;18.13;59.15
48862;BME280;34681;49.188;-0.374;2023-07-22T03:09:40;101349.09;;;18.15;59.11
48862;BME280;34681;49.188;-0.374;2023-07-22T03:12:06;101349.97;;;18.15;59.15
48862;BME280;34681;49.188;-0.374;2023-07-22T03:14:31;101349.78;;;18.17;59.08
48862;BME280;34681;49.188;-0.374;2023-07-22T03:17:02;101346.13;;;18.16;59.08
48862;BME280;34681;49.188;-0.374;2023-07-22T03:19:27;101345.22;;;18.24;59.37
48862;BME280;34681;49.188;-0.374;2023-07-22T03:21:52;101357.50;;;18.30;59.14
48862;BME280;34681;49.188;-0.374;2023-07-22T03:24:18;101354.84;;;18.36;58.98
48862;BME280;34681;49.188;-0.374;2023-07-22T03:26:44;101354.97;;;18.43;59.28
48862;BME280;34681;49.188;-0.374;2023-07-22T03:29:09;101346.31;;;18.46;58.91
48862;BME280;34681;49.188;-0.374;2023-07-22T03:31:34;101353.06;;;18.43;59.05
48862;BME280;34681;49.188;-0.374;2023-07-22T03:34:00;101347.91;;;18.40;59.03
48862;BME280;34681;49.188;-0.374;2023-07-22T03:36:26;101354.53;;;18.31;59.20
48862;BME280;34681;49.188;-0.374;2023-07-22T03:38:52;101354.34;;;18.33;59.44
48862;BME280;34681;49.188;-0.374;2023-07-22T03:41:17;101356.06;;;18.34;59.12
48862;BME280;34681;49.188;-0.374;2023-07-22T03:43:42;101359.03;;;18.32;59.09
48862;BME280;34681;49.188;-0.374;2023-07-22T03:46:08;101355.41;;;18.32;59.23
48862;BME280;34681;49.188;-0.374;2023-07-22T03:48:34;101351.78;;;18.31;59.06
48862;BME280;34681;49.188;-0.374;2023-07-22T03:50:59;101360.09;;;18.31;59.21
48862;BME280;34681;49.188;-0.374;2023-07-22T03:53:25;101356.94;;;18.34;59.39
48862;BME280;34681;49.188;-0.374;2023-07-22T03:55:50;101353.13;;;18.35;59.32
48862;BME280;34681;49.188;-0.374;2023-07-22T03:58:15;101346.38;;;18.38;59.08
48862;BME280;34681;49.188;-0.374;2023-07-22T04:00:41;101341.50;;;18.40;59.06
48862;BME280;34681;49.188;-0.374;2023-07-22T04:03:06;101342.53;;;18.39;59.14
48862;BME280;34681;49.188;-0.374;2023-07-22T04:05:31;101340.81;;;18.38;59.12
48862;BME280;34681;49.188;-0.374;2023-07-22T04:07:57;101345.00;;;18.34;59.13
48862;BME280;34681;49.188;-0.374;2023-07-22T04:10:22;101341.16;;;18.35;59.22
48862;BME280;34681;49.188;-0.374;2023-07-22T04:12:48;101340.13;;;18.36;59.21
48862;BME280;34681;49.188;-0.374;2023-07-22T04:15:13;101342.91;;;18.36;59.12
48862;BME280;34681;49.188;-0.374;2023-07-22T04:17:40;101342.03;;;18.35;58.94
48862;BME280;34681;49.188;-0.374;2023-07-22T04:20:06;101349.00;;;18.31;59.14
48862;BME280;34681;49.188;-0.374;2023-07-22T04:22:33;101348.47;;;18.28;58.84
48862;BME280;34681;49.188;-0.374;2023-07-22T04:24:59;101345.03;;;18.25;59.09
48862;BME280;34681;49.188;-0.374;2023-07-22T04:27:26;101343.13;;;18.26;59.04
48862;BME280;34681;49.188;-0.374;2023-07-22T04:29:51;101342.28;;;18.25;59.12
48862;BME280;34681;49.188;-0.374;2023-07-22T04:32:17;101341.28;;;18.18;59.12
48862;BME280;34681;49.188;-0.374;2023-07-22T04:34:42;101340.59;;;18.16;59.23
48862;BME280;34681;49.188;-0.374;2023-07-22T04:37:08;101331.91;;;18.19;59.16
48862;BME280;34681;49.188;-0.374;2023-07-22T04:39:33;101341.41;;;18.25;59.04
48862;BME280;34681;49.188;-0.374;2023-07-22T04:41:59;101337.59;;;18.26;58.86
48862;BME280;34681;49.188;-0.374;2023-07-22T04:44:25;101347.94;;;18.32;58.92
48862;BME280;34681;49.188;-0.374;2023-07-22T04:46:50;101344.47;;;18.38;58.78
48862;BME280;34681;49.188;-0.374;2023-07-22T04:49:16;101346.38;;;18.38;58.58
48862;BME280;34681;49.188;-0.374;2023-07-22T04:51:44;101338.59;;;18.33;58.48
48862;BME280;34681;49.188;-0.374;2023-07-22T04:54:10;101334.28;;;18.31;58.82
48862;BME280;34681;49.188;-0.374;2023-07-22T04:56:35;101331.53;;;18.31;58.87
48862;BME280;34681;49.188;-0.374;2023-07-22T04:59:00;101333.25;;;18.32;58.72
48862;BME280;34681;49.188;-0.374;2023-07-22T05:01:26;101329.41;;;18.33;58.53
48862;BME280;34681;49.188;-0.374;2023-07-22T05:03:51;101332.19;;;18.33;58.41
48862;BME280;34681;49.188;-0.374;2023-07-22T05:06:20;101333.38;;;18.38;58.28
48862;BME280;34681;49.188;-0.374;2023-07-22T05:08:45;101334.84;;;18.49;58.30
48862;BME280;34681;49.188;-0.374;2023-07-22T05:11:11;101334.59;;;18.59;58.14
48862;BME280;34681;49.188;-0.374;2023-07-22T05:13:36;101336.84;;;18.63;58.10
48862;BME280;34681;49.188;-0.374;2023-07-22T05:16:01;101343.06;;;18.65;58.00
48862;BME280;34681;49.188;-0.374;2023-07-22T05:18:27;101340.63;;;18.70;57.82
48862;BME280;34681;49.188;-0.374;2023-07-22T05:20:52;101350.09;;;18.76;58.16
48862;BME280;34681;49.188;-0.374;2023-07-22T05:23:17;101355.56;;;18.84;58.01
48862;BME280;34681;49.188;-0.374;2023-07-22T05:25:43;101360.75;;;18.87;57.58
48862;BME280;34681;49.188;-0.374;2023-07-22T05:28:08;101364.88;;;18.91;57.81
48862;BME280;34681;49.188;-0.374;2023-07-22T05:30:33;101346.69;;;18.89;57.78
48862;BME280;34681;49.188;-0.374;2023-07-22T05:32:59;101353.22;;;18.96;57.72
48862;BME280;34681;49.188;-0.374;2023-07-22T05:35:24;101348.34;;;18.98;57.79
48862;BME280;34681;49.188;-0.374;2023-07-22T05:37:49;101341.44;;;18.94;57.49
48862;BME280;34681;49.188;-0.374;2023-07-22T05:40:15;101344.91;;;18.96;57.45
48862;BME280;34681;49.188;-0.374;2023-07-22T05:42:40;101349.53;;;19.03;57.31
48862;BME280;34681;49.188;-0.374;2023-07-22T05:45:06;101351.91;;;19.06;57.25
48862;BME280;34681;49.188;-0.374;2023-07-22T05:47:32;101349.78;;;19.08;57.22
48862;BME280;34681;49.188;-0.374;2023-07-22T05:49:58;101354.78;;;19.13;57.14
48862;BME280;34681;49.188;-0.374;2023-07-22T05:52:23;101341.59;;;19.15;57.31
48862;BME280;34681;49.188;-0.374;2023-07-22T05:54:48;101343.44;;;19.23;57.09
48862;BME280;34681;49.188;-0.374;2023-07-22T05:57:15;101337.50;;;19.26;56.90
48862;BME280;34681;49.188;-0.374;2023-07-22T05:59:46;101330.78;;;19.35;56.50
48862;BME280;34681;49.188;-0.374;2023-07-22T06:02:13;101324.28;;;19.43;56.73
48862;BME280;34681;49.188;-0.374;2023-07-22T06:04:38;101332.47;;;19.59;56.34
48862;BME280;34681;49.188;-0.374;2023-07-22T06:07:04;101332.75;;;19.64;56.43
48862;BME280;34681;49.188;-0.374;2023-07-22T06:09:29;101340.13;;;19.57;56.15
48862;BME280;34681;49.188;-0.374;2023-07-22T06:11:55;101335.50;;;19.49;56.17
48862;BME280;34681;49.188;-0.374;2023-07-22T06:14:20;101335.69;;;19.48;56.34
48862;BME280;34681;49.188;-0.374;2023-07-22T06:16:45;101340.94;;;19.43;56.07
48862;BME280;34681;49.188;-0.374;2023-07-22T06:19:11;101346.31;;;19.29;56.45
48862;BME280;34681;49.188;-0.374;2023-07-22T06:21:36;101348.97;;;19.23;56.62
48862;BME280;34681;49.188;-0.374;2023-07-22T06:24:01;101344.63;;;19.05;57.01
48862;BME280;34681;49.188;-0.374;2023-07-22T06:26:27;101350.84;;;19.07;56.83
48862;BME280;34681;49.188;-0.374;2023-07-22T06:28:52;101353.16;;;19.19;57.13
48862;BME280;34681;49.188;-0.374;2023-07-22T06:31:17;101340.25;;;19.26;56.89
48862;BME280;34681;49.188;-0.374;2023-07-22T06:33:43;101345.72;;;19.34;56.73
48862;BME280;34681;49.188;-0.374;2023-07-22T06:36:08;101343.81;;;19.49;56.57
48862;BME280;34681;49.188;-0.374;2023-07-22T06:38:34;101339.78;;;19.52;56.52
48862;BME280;34681;49.188;-0.374;2023-07-22T06:40:59;101340.25;;;19.63;56.66
48862;BME280;34681;49.188;-0.374;2023-07-22T06:43:24;101350.47;;;19.63;56.54
48862;BME280;34681;49.188;-0.374;2023-07-22T06:45:50;101354.47;;;19.60;56.70
48862;BME280;34681;49.188;-0.374;2023-07-22T06:48:15;101352.66;;;19.68;56.73
48862;BME280;34681;49.188;-0.374;2023-07-22T06:50:47;101351.59;;;19.83;56.49
48862;BME280;34681;49.188;-0.374;2023-07-22T06:53:12;101339.00;;;20.17;55.81
48862;BME280;34681;49.188;-0.374;2023-07-22T06:55:40;101347.16;;;20.97;54.46
48862;BME280;34681;49.188;-0.374;2023-07-22T06:58:05;101351.41;;;22.12;51.87
48862;BME280;34681;49.188;-0.374;2023-07-22T07:00:30;101351.84;;;22.96;51.36
48862;BME280;34681;49.188;-0.374;2023-07-22T07:02:55;101348.09;;;22.56;51.36
48862;BME280;34681;49.188;-0.374;2023-07-22T07:05:21;101347.66;;;21.98;51.97
48862;BME280;34681;49.188;-0.374;2023-07-22T07:07:48;101342.88;;;21.85;52.88
48862;BME280;34681;49.188;-0.374;2023-07-22T07:10:14;101341.38;;;22.31;52.40
48862;BME280;34681;49.188;-0.374;2023-07-22T07:12:39;101344.91;;;22.59;52.22
48862;BME280;34681;49.188;-0.374;2023-07-22T07:15:05;101348.53;;;22.66;52.37
48862;BME280;34681;49.188;-0.374;2023-07-22T07:17:36;101347.69;;;22.59;52.38
48862;BME280;34681;49.188;-0.374;2023-07-22T07:20:08;101346.41;;;22.62;52.82
48862;BME280;34681;49.188;-0.374;2023-07-22T07:22:34;101350.53;;;23.06;52.45
48862;BME280;34681;49.188;-0.374;2023-07-22T07:24:59;101340.63;;;23.49;51.80
48862;BME280;34681;49.188;-0.374;2023-07-22T07:27:25;101348.16;;;23.49;52.14
48862;BME280;34681;49.188;-0.374;2023-07-22T07:29:50;101341.06;;;23.33;52.31
48862;BME280;34681;49.188;-0.374;2023-07-22T07:32:16;101344.13;;;23.18;52.25
48862;BME280;34681;49.188;-0.374;2023-07-22T07:34:41;101341.75;;;23.09;52.39
48862;BME280;34681;49.188;-0.374;2023-07-22T07:37:06;101350.53;;;22.99;52.49
48862;BME280;34681;49.188;-0.374;2023-07-22T07:39:32;101351.81;;;22.90;52.10
48862;BME280;34681;49.188;-0.374;2023-07-22T07:41:57;101349.25;;;22.95;52.47
48862;BME280;34681;49.188;-0.374;2023-07-22T07:44:22;101338.31;;;23.20;52.08
48862;BME280;34681;49.188;-0.374;2023-07-22T07:46:48;101342.81;;;23.21;51.26
48862;BME280;34681;49.188;-0.374;2023-07-22T07:49:13;101342.81;;;23.14;51.60
48862;BME280;34681;49.188;-0.374;2023-07-22T07:51:40;101335.91;;;23.70;50.91
48862;BME280;34681;49.188;-0.374;2023-07-22T07:54:07;101330.47;;;24.40;49.52
48862;BME280;34681;49.188;-0.374;2023-07-22T07:56:33;101337.28;;;24.82;48.38
48862;BME280;34681;49.188;-0.374;2023-07-22T07:58:58;101335.19;;;25.09;47.31
48862;BME280;34681;49.188;-0.374;2023-07-22T08:01:23;101335.00;;;25.04;47.22
48862;BME280;34681;49.188;-0.374;2023-07-22T08:03:49;101330.34;;;25.66;45.97
48862;BME280;34681;49.188;-0.374;2023-07-22T08:06:15;101329.94;;;29.87;40.24
48862;BME280;34681;49.188;-0.374;2023-07-22T08:08:40;101331.84;;;35.55;32.49
48862;BME280;34681;49.188;-0.374;2023-07-22T08:11:08;101342.97;;;35.80;30.56
48862;BME280;34681;49.188;-0.374;2023-07-22T08:13:34;101325.56;;;34.40;31.14
48862;BME280;34681;49.188;-0.374;2023-07-22T08:16:10;101335.78;;;33.36;32.00
48862;BME280;34681;49.188;-0.374;2023-07-22T08:18:36;101326.63;;;32.62;32.79
48862;BME280;34681;49.188;-0.374;2023-07-22T08:21:03;101329.91;;;30.75;33.88
48862;BME280;34681;49.188;-0.374;2023-07-22T08:23:29;101337.53;;;29.31;35.23
48862;BME280;34681;49.188;-0.374;2023-07-22T08:25:54;101331.94;;;29.70;34.81
48862;BME280;34681;49.188;-0.374;2023-07-22T08:28:20;101335.50;;;30.70;34.34
48862;BME280;34681;49.188;-0.374;2023-07-22T08:30:47;101334.91;;;30.68;33.83
48862;BME280;34681;49.188;-0.374;2023-07-22T08:33:13;101326.63;;;30.12;34.60
48862;BME280;34681;49.188;-0.374;2023-07-22T08:35:39;101318.38;;;29.33;35.37
48862;BME280;34681;49.188;-0.374;2023-07-22T08:38:05;101321.75;;;28.68;36.49
48862;BME280;34681;49.188;-0.374;2023-07-22T08:40:37;101318.09;;;28.27;37.05
48862;BME280;34681;49.188;-0.374;2023-07-22T08:43:05;101324.34;;;27.66;37.77
48862;BME280;34681;49.188;-0.374;2023-07-22T08:45:32;101321.59;;;27.01;39.01
48862;BME280;34681;49.188;-0.374;2023-07-22T08:48:02;101322.97;;;26.56;39.23
48862;BME280;34681;49.188;-0.374;2023-07-22T08:50:30;101324.94;;;26.19;40.14
48862;BME280;34681;49.188;-0.374;2023-07-22T08:52:59;101319.94;;;25.91;40.45
48862;BME280;34681;49.188;-0.374;2023-07-22T08:55:26;101326.63;;;25.90;41.05
48862;BME280;34681;49.188;-0.374;2023-07-22T08:57:52;101318.97;;;25.79;41.04
48862;BME280;34681;49.188;-0.374;2023-07-22T09:00:17;101315.81;;;25.75;41.46
48862;BME280;34681;49.188;-0.374;2023-07-22T09:02:44;101332.47;;;25.45;41.81
48862;BME280;34681;49.188;-0.374;2023-07-22T09:05:09;101324.28;;;25.26;41.88
48862;BME280;34681;49.188;-0.374;2023-07-22T09:07:37;101312.56;;;25.10;41.89
48862;BME280;34681;49.188;-0.374;2023-07-22T09:10:05;101322.53;;;25.00;41.53
48862;BME280;34681;49.188;-0.374;2023-07-22T09:12:31;101318.00;;;24.99;41.69
48862;BME280;34681;49.188;-0.374;2023-07-22T09:14:57;101308.75;;;24.98;41.26
48862;BME280;34681;49.188;-0.374;2023-07-22T09:17:22;101306.09;;;25.35;41.23
48862;BME280;34681;49.188;-0.374;2023-07-22T09:19:52;101305.97;;;25.66;39.85
48862;BME280;34681;49.188;-0.374;2023-07-22T09:22:18;101311.44;;;25.80;39.52
48862;BME280;34681;49.188;-0.374;2023-07-22T09:24:43;101303.50;;;25.76;38.92
48862;BME280;34681;49.188;-0.374;2023-07-22T09:27:09;101313.31;;;25.86;39.21
48862;BME280;34681;49.188;-0.374;2023-07-22T09:29:35;101305.03;;;26.09;39.29
48862;BME280;34681;49.188;-0.374;2023-07-22T09:32:01;101304.38;;;26.25;38.54
48862;BME280;34681;49.188;-0.374;2023-07-22T09:34:28;101294.72;;;26.21;38.41
48862;BME280;34681;49.188;-0.374;2023-07-22T09:36:58;101304.13;;;26.27;38.21
48862;BME280;34681;49.188;-0.374;2023-07-22T09:39:28;101297.47;;;26.58;38.44
48862;BME280;34681;49.188;-0.374;2023-07-22T09:41:54;101304.91;;;27.29;37.28
48862;BME280;34681;49.188;-0.374;2023-07-22T09:44:19;101299.97;;;28.07;36.17
48862;BME280;34681;49.188;-0.374;2023-07-22T09:46:48;101314.97;;;29.48;34.25
48862;BME280;34681;49.188;-0.374;2023-07-22T09:49:16;101302.91;;;29.53;33.77
48862;BME280;34681;49.188;-0.374;2023-07-22T09:51:42;101307.13;;;30.60;32.82
48862;BME280;34681;49.188;-0.374;2023-07-22T09:54:08;101311.22;;;31.75;30.57
48862;BME280;34681;49.188;-0.374;2023-07-22T09:56:44;101310.25;;;32.95;30.08
48862;BME280;34681;49.188;-0.374;2023-07-22T09:59:10;101313.44;;;32.21;30.68
48862;BME280;34681;49.188;-0.374;2023-07-22T10:01:38;101298.00;;;30.53;32.03
48862;BME280;34681;49.188;-0.374;2023-07-22T10:04:05;101296.00;;;29.44;33.88
48862;BME280;34681;49.188;-0.374;2023-07-22T10:06:31;101301.50;;;28.71;34.83
48862;BME280;34681;49.188;-0.374;2023-07-22T10:09:05;101302.59;;;28.13;35.54
48862;BME280;34681;49.188;-0.374;2023-07-22T10:11:34;101299.53;;;27.63;36.81
48862;BME280;34681;49.188;-0.374;2023-07-22T10:14:03;101295.38;;;27.30;37.14
48862;BME280;34681;49.188;-0.374;2023-07-22T10:16:29;101299.31;;;27.18;37.22
48862;BME280;34681;49.188;-0.374;2023-07-22T10:18:56;101295.53;;;27.35;37.36
48862;BME280;34681;49.188;-0.374;2023-07-22T10:21:24;101297.22;;;27.36;36.95
48862;BME280;34681;49.188;-0.374;2023-07-22T10:23:50;101295.38;;;27.89;37.28
48862;BME280;34681;49.188;-0.374;2023-07-22T10:26:17;101289.25;;;28.20;36.92
48862;BME280;34681;49.188;-0.374;2023-07-22T10:28:45;101296.97;;;28.25;36.44
48862;BME280;34681;49.188;-0.374;2023-07-22T10:31:11;101296.91;;;28.08;36.73
48862;BME280;34681;49.188;-0.374;2023-07-22T10:33:38;101294.16;;;28.13;36.82
48862;BME280;34681;49.188;-0.374;2023-07-22T10:36:08;101292.59;;;28.46;35.98
48862;BME280;34681;49.188;-0.374;2023-07-22T10:38:37;101287.13;;;28.85;35.38
48862;BME280;34681;49.188;-0.374;2023-07-22T10:41:15;101289.03;;;28.96;35.05
48862;BME280;34681;49.188;-0.374;2023-07-22T10:43:42;101281.88;;;29.05;35.42
48862;BME280;34681;49.188;-0.374;2023-07-22T10:46:34;101279.34;;;28.75;35.44
48862;BME280;34681;49.188;-0.374;2023-07-22T10:49:14;101268.06;;;28.58;35.46
48862;BME280;34681;49.188;-0.374;2023-07-22T10:51:41;101272.19;;;28.67;35.25
48862;BME280;34681;49.188;-0.374;2023-07-22T10:54:13;101274.25;;;28.89;34.56
48862;BME280;34681;49.188;-0.374;2023-07-22T10:56:44;101270.84;;;29.03;34.30
48862;BME280;34681;49.188;-0.374;2023-07-22T10:59:13;101271.59;;;29.32;34.26
48862;BME280;34681;49.188;-0.374;2023-07-22T11:01:39;101269.81;;;29.26;34.32
48862;BME280;34681;49.188;-0.374;2023-07-22T11:11:53;101254.88;;;29.26;33.26
48862;BME280;34681;49.188;-0.374;2023-07-22T11:14:22;101258.50;;;29.43;33.35
48862;BME280;34681;49.188;-0.374;2023-07-22T11:16:48;101256.66;;;29.32;33.37
48862;BME280;34681;49.188;-0.374;2023-07-22T11:19:15;101257.59;;;29.54;33.55
48862;BME280;34681;49.188;-0.374;2023-07-22T11:21:45;101253.91;;;29.76;33.08
48862;BME280;34681;49.188;-0.374;2023-07-22T11:24:11;101255.84;;;29.53;32.85
48862;BME280;34681;49.188;-0.374;2023-07-22T11:26:37;101242.63;;;28.98;33.49
48862;BME280;34681;49.188;-0.374;2023-07-22T11:29:04;101239.13;;;28.91;34.15
48862;BME280;34681;49.188;-0.374;2023-07-22T11:31:34;101240.88;;;29.31;33.35
48862;BME280;34681;49.188;-0.374;2023-07-22T11:34:04;101239.69;;;28.93;33.01
48862;BME280;34681;49.188;-0.374;2023-07-22T11:36:30;101248.47;;;28.80;34.02
48862;BME280;34681;49.188;-0.374;2023-07-22T11:39:12;101236.03;;;28.93;33.99
48862;BME280;34681;49.188;-0.374;2023-07-22T11:41:38;101234.91;;;28.94;33.76
48862;BME280;34681;49.188;-0.374;2023-07-22T11:44:06;101228.84;;;28.68;34.13
48862;BME280;34681;49.188;-0.374;2023-07-22T11:46:35;101234.72;;;28.50;34.47
48862;BME280;34681;49.188;-0.374;2023-07-22T11:49:01;101229.84;;;28.79;34.23
48862;BME280;34681;49.188;-0.374;2023-07-22T11:51:26;101215.19;;;28.77;34.37
48862;BME280;34681;49.188;-0.374;2023-07-22T11:53:53;101224.66;;;28.71;34.21
48862;BME280;34681;49.188;-0.374;2023-07-22T11:56:27;101214.75;;;28.68;34.69
48862;BME280;34681;49.188;-0.374;2023-07-22T11:58:56;101219.22;;;28.64;34.42
48862;BME280;34681;49.188;-0.374;2023-07-22T12:01:22;101219.38;;;28.58;34.31
48862;BME280;34681;49.188;-0.374;2023-07-22T12:03:48;101212.91;;;28.74;34.09
48862;BME280;34681;49.188;-0.374;2023-07-22T12:06:14;101210.00;;;29.02;34.24
48862;BME280;34681;49.188;-0.374;2023-07-22T12:08:47;101215.72;;;29.07;33.67
48862;BME280;34681;49.188;-0.374;2023-07-22T12:11:24;101200.69;;;28.85;33.92
48862;BME280;34681;49.188;-0.374;2023-07-22T12:14:13;101211.28;;;28.95;33.50
48862;BME280;34681;49.188;-0.374;2023-07-22T12:16:40;101211.94;;;28.85;34.03
48862;BME280;34681;49.188;-0.374;2023-07-22T12:19:08;101206.84;;;28.99;34.05
48862;BME280;34681;49.188;-0.374;2023-07-22T12:21:33;101204.59;;;28.84;34.05
48862;BME280;34681;49.188;-0.374;2023-07-22T12:23:59;101203.16;;;28.81;33.93
48862;BME280;34681;49.188;-0.374;2023-07-22T12:26:25;101200.09;;;28.83;33.73
48862;BME280;34681;49.188;-0.374;2023-07-22T12:28:50;101192.22;;;28.85;33.99
48862;BME280;34681;49.188;-0.374;2023-07-22T12:31:16;101183.38;;;28.93;34.16
48862;BME280;34681;49.188;-0.374;2023-07-22T12:33:41;101187.03;;;28.94;33.62
48862;BME280;34681;49.188;-0.374;2023-07-22T12:36:07;101178.69;;;28.82;34.24
48862;BME280;34681;49.188;-0.374;2023-07-22T12:38:32;101180.69;;;28.87;34.17
48862;BME280;34681;49.188;-0.374;2023-07-22T12:40:57;101172.88;;;28.89;33.77
48862;BME280;34681;49.188;-0.374;2023-07-22T12:43:23;101177.47;;;28.78;33.00
48862;BME280;34681;49.188;-0.374;2023-07-22T12:45:48;101174.66;;;28.95;33.63